Time,TemperatureF,DewpointF,PressureIn,WindDirection,WindDirectionDegrees,WindSpeedMPH,WindSpeedGustMPH,Humidity,HourlyPrecipIn,Conditions,Clouds,dailyrainin,SoftwareType,DateUTC
2013-06-19 00:00:00,81.8,76.8,30.01,West,279,0.0,0.0,85,0.00,,,0.00,Wunderground v.1.13,2013-06-19 04:00:00,
2013-06-19 00:02:00,81.7,76.7,30.01,West,279,0.0,0.0,85,0.00,,,0.00,Wunderground v.1.13,2013-06-19 04:02:00,
2013-06-19 00:04:00,81.7,76.7,30.01,West,279,0.0,0.0,85,0.00,,,0.00,Wunderground v.1.13,2013-06-19 04:04:00,
2013-06-19 00:06:00,81.7,76.7,30.01,West,279,0.0,0.0,85,0.00,,,0.00,Wunderground v.1.13,2013-06-19 04:06:00,
2013-06-19 00:10:00,81.6,76.6,30.01,West,279,0.0,0.0,85,0.00,,,0.00,Wunderground v.1.13,2013-06-19 04:10:00,
2013-06-19 00:14:00,81.6,76.6,30.01,West,279,0.0,0.0,85,0.00,,,0.00,Wunderground v.1.13,2013-06-19 04:14:00,
2013-06-19 00:20:00,81.5,76.6,30.01,West,279,0.0,0.0,85,0.00,,,0.00,Wunderground v.1.13,2013-06-19 04:20:00,
2013-06-19 00:26:00,81.4,76.5,30.00,West,279,0.0,0.0,85,0.00,,,0.00,Wunderground v.1.13,2013-06-19 04:26:00,
2013-06-19 00:32:00,81.3,76.4,30.00,West,279,0.0,0.0,85,0.00,,,0.00,Wunderground v.1.13,2013-06-19 04:32:00,
2013-06-19 00:38:00,81.2,76.3,30.00,West,279,0.0,0.0,85,0.00,,,0.00,Wunderground v.1.13,2013-06-19 04:38:00,
2013-06-19 00:44:00,81.2,76.3,30.00,West,279,0.0,0.0,85,0.00,,,0.00,Wunderground v.1.13,2013-06-19 04:44:00,
2013-06-19 00:50:00,81.1,76.2,30.00,West,279,0.0,0.0,85,0.00,,,0.00,Wunderground v.1.13,2013-06-19 04:50:00,
2013-06-19 00:56:00,81.0,76.4,29.99,West,279,0.0,0.0,86,0.00,,,0.00,Wunderground v.1.13,2013-06-19 04:56:00,
2013-06-19 01:02:00,80.9,76.3,29.99,West,279,0.0,0.0,86,0.00,,,0.00,Wunderground v.1.13,2013-06-19 05:02:00,
2013-06-19 01:08:00,80.9,76.3,29.99,West,279,0.0,0.0,86,0.00,,,0.00,Wunderground v.1.13,2013-06-19 05:08:00,
2013-06-19 01:14:00,80.7,76.1,29.99,West,279,0.0,0.0,86,0.00,,,0.00,Wunderground v.1.13,2013-06-19 05:14:00,
2013-06-19 01:20:00,80.8,76.6,29.99,West,279,0.0,0.0,87,0.00,,,0.00,Wunderground v.1.13,2013-06-19 05:20:00,
2013-06-19 01:26:00,80.8,76.6,29.99,West,279,0.0,0.0,87,0.00,,,0.00,Wunderground v.1.13,2013-06-19 05:26:00,
2013-06-19 01:32:00,80.8,76.6,29.99,West,279,0.0,0.0,87,0.00,,,0.00,Wunderground v.1.13,2013-06-19 05:32:00,
2013-06-19 01:38:00,80.9,76.7,30.00,West,279,0.0,0.0,87,0.00,,,0.00,Wunderground v.1.13,2013-06-19 05:38:00,
2013-06-19 01:44:00,80.9,76.7,30.00,West,279,0.0,0.0,87,0.00,,,0.00,Wunderground v.1.13,2013-06-19 05:44:00,
2013-06-19 01:50:00,80.8,76.2,30.00,West,279,0.0,0.0,86,0.00,,,0.00,Wunderground v.1.13,2013-06-19 05:50:00,
2013-06-19 01:56:00,80.7,76.5,30.00,West,279,0.0,0.0,87,0.00,,,0.00,Wunderground v.1.13,2013-06-19 05:56:00,
2013-06-19 02:02:00,80.5,76.3,30.00,West,279,0.0,0.0,87,0.00,,,0.00,Wunderground v.1.13,2013-06-19 06:02:00,
2013-06-19 02:08:00,80.3,76.1,30.00,West,279,0.0,0.0,87,0.00,,,0.00,Wunderground v.1.13,2013-06-19 06:08:00,
2013-06-19 02:14:00,80.2,76.0,30.00,West,279,0.0,0.0,87,0.00,,,0.00,Wunderground v.1.13,2013-06-19 06:14:00,
2013-06-19 02:20:00,80.2,76.3,30.00,West,279,0.0,0.0,88,0.00,,,0.00,Wunderground v.1.13,2013-06-19 06:20:00,
2013-06-19 02:26:00,80.2,76.3,30.00,West,279,0.0,0.0,88,0.00,,,0.00,Wunderground v.1.13,2013-06-19 06:26:00,
2013-06-19 02:32:00,80.4,76.5,30.00,West,279,0.0,0.0,88,0.00,,,0.00,Wunderground v.1.13,2013-06-19 06:32:00,
2013-06-19 02:38:00,80.4,76.2,30.01,West,279,0.0,0.0,87,0.00,,,0.00,Wunderground v.1.13,2013-06-19 06:38:00,
2013-06-19 02:44:00,80.3,76.1,30.01,West,279,0.0,0.0,87,0.00,,,0.00,Wunderground v.1.13,2013-06-19 06:44:00,
2013-06-19 02:50:00,80.2,76.3,30.01,West,279,0.0,0.0,88,0.00,,,0.00,Wunderground v.1.13,2013-06-19 06:50:00,
2013-06-19 02:56:00,80.2,76.3,30.01,West,279,0.0,0.0,88,0.00,,,0.00,Wunderground v.1.13,2013-06-19 06:56:00,
2013-06-19 03:02:00,80.4,76.5,30.01,West,279,0.0,0.0,88,0.00,,,0.00,Wunderground v.1.13,2013-06-19 07:02:00,
2013-06-19 03:08:00,80.5,76.3,30.01,West,279,0.0,0.0,87,0.00,,,0.00,Wunderground v.1.13,2013-06-19 07:08:00,
2013-06-19 03:14:00,80.5,76.3,30.01,West,279,0.0,0.0,87,0.00,,,0.00,Wunderground v.1.13,2013-06-19 07:14:00,
2013-06-19 03:20:00,80.6,76.4,30.01,West,279,0.0,0.0,87,0.00,,,0.00,Wunderground v.1.13,2013-06-19 07:20:00,
2013-06-19 03:26:00,80.7,76.5,30.01,West,279,0.0,0.0,87,0.00,,,0.00,Wunderground v.1.13,2013-06-19 07:26:00,
2013-06-19 03:32:00,80.6,76.4,30.01,West,279,0.0,0.0,87,0.00,,,0.00,Wunderground v.1.13,2013-06-19 07:32:00,
2013-06-19 03:38:00,80.5,76.3,30.00,West,279,0.0,0.0,87,0.00,,,0.00,Wunderground v.1.13,2013-06-19 07:38:00,
2013-06-19 03:44:00,80.4,76.2,30.01,West,279,0.0,0.0,87,0.00,,,0.00,Wunderground v.1.13,2013-06-19 07:44:00,
2013-06-19 03:50:00,80.3,76.1,30.00,West,279,0.0,0.0,87,0.00,,,0.00,Wunderground v.1.13,2013-06-19 07:50:00,
2013-06-19 03:56:00,80.2,76.3,30.01,West,279,0.0,0.0,88,0.00,,,0.00,Wunderground v.1.13,2013-06-19 07:56:00,
2013-06-19 04:02:00,80.2,76.3,30.01,West,279,0.0,0.0,88,0.00,,,0.00,Wunderground v.1.13,2013-06-19 08:02:00,
2013-06-19 04:08:00,80.2,76.7,30.01,West,279,0.0,0.0,89,0.00,,,0.00,Wunderground v.1.13,2013-06-19 08:08:00,
2013-06-19 04:14:00,80.2,76.7,30.01,West,279,0.0,0.0,89,0.00,,,0.00,Wunderground v.1.13,2013-06-19 08:14:00,
2013-06-19 04:20:00,80.2,77.0,30.01,West,279,0.0,0.0,90,0.00,,,0.00,Wunderground v.1.13,2013-06-19 08:20:00,
2013-06-19 04:26:00,80.0,76.5,30.00,West,279,0.0,0.0,89,0.00,,,0.00,Wunderground v.1.13,2013-06-19 08:26:00,
2013-06-19 04:32:00,80.0,76.5,30.01,West,279,0.0,0.0,89,0.00,,,0.00,Wunderground v.1.13,2013-06-19 08:32:00,
2013-06-19 04:38:00,79.6,76.1,30.00,West,279,0.0,0.0,89,0.00,,,0.00,Wunderground v.1.13,2013-06-19 08:38:00,
2013-06-19 04:44:00,79.5,75.6,30.00,NE,45,0.0,0.0,88,0.00,,,0.00,Wunderground v.1.13,2013-06-19 08:44:00,
2013-06-19 04:50:00,79.3,75.4,30.00,ENE,76,0.0,0.0,88,0.00,,,0.00,Wunderground v.1.13,2013-06-19 08:50:00,
2013-06-19 04:56:00,79.2,75.3,30.00,ENE,76,0.0,0.0,88,0.00,,,0.00,Wunderground v.1.13,2013-06-19 08:56:00,
2013-06-19 05:02:00,79.1,74.9,30.00,ENE,76,0.0,0.0,87,0.00,,,0.00,Wunderground v.1.13,2013-06-19 09:02:00,
2013-06-19 05:08:00,79.2,75.0,30.00,ENE,76,0.0,0.0,87,0.00,,,0.00,Wunderground v.1.13,2013-06-19 09:08:00,
2013-06-19 05:14:00,79.3,75.4,30.00,ENE,76,0.0,0.0,88,0.00,,,0.00,Wunderground v.1.13,2013-06-19 09:14:00,
2013-06-19 05:20:00,79.4,75.5,30.00,ENE,76,0.0,1.0,88,0.00,,,0.00,Wunderground v.1.13,2013-06-19 09:20:00,
2013-06-19 05:26:00,79.4,75.9,30.00,ENE,75,0.0,1.0,89,0.00,,,0.00,Wunderground v.1.13,2013-06-19 09:26:00,
2013-06-19 05:32:00,79.3,75.8,30.00,ENE,76,0.0,1.0,89,0.00,,,0.00,Wunderground v.1.13,2013-06-19 09:32:00,
2013-06-19 05:38:00,79.3,75.8,30.00,ENE,76,0.0,1.0,89,0.00,,,0.00,Wunderground v.1.13,2013-06-19 09:38:00,
2013-06-19 05:44:00,79.3,76.1,30.00,ENE,76,0.0,1.0,90,0.00,,,0.00,Wunderground v.1.13,2013-06-19 09:44:00,
2013-06-19 05:50:00,79.4,76.2,30.00,ENE,76,0.0,1.0,90,0.00,,,0.00,Wunderground v.1.13,2013-06-19 09:50:00,
2013-06-19 05:56:00,79.3,76.1,30.00,ENE,76,0.0,1.0,90,0.00,,,0.00,Wunderground v.1.13,2013-06-19 09:56:00,
2013-06-19 06:02:00,79.1,75.9,30.00,ENE,76,0.0,1.0,90,0.00,,,0.00,Wunderground v.1.13,2013-06-19 10:02:00,
2013-06-19 06:08:00,79.1,75.9,30.00,ENE,76,0.0,0.0,90,0.00,,,0.00,Wunderground v.1.13,2013-06-19 10:08:00,
2013-06-19 06:14:00,79.1,76.2,30.00,ENE,76,0.0,0.0,91,0.00,,,0.00,Wunderground v.1.13,2013-06-19 10:14:00,
2013-06-19 06:20:00,79.2,76.3,30.00,ENE,76,0.0,0.0,91,0.00,,,0.00,Wunderground v.1.13,2013-06-19 10:20:00,
2013-06-19 06:26:00,79.2,76.0,30.00,ENE,76,0.0,0.0,90,0.00,,,0.00,Wunderground v.1.13,2013-06-19 10:26:00,
2013-06-19 06:32:00,79.2,76.3,30.00,ENE,75,0.0,0.0,91,0.00,,,0.00,Wunderground v.1.13,2013-06-19 10:32:00,
2013-06-19 06:38:00,79.2,76.3,30.01,ENE,76,0.0,0.0,91,0.00,,,0.00,Wunderground v.1.13,2013-06-19 10:38:00,
2013-06-19 06:44:00,79.2,76.3,30.00,East,90,0.0,0.0,91,0.00,,,0.00,Wunderground v.1.13,2013-06-19 10:44:00,
2013-06-19 06:50:00,78.9,75.7,30.01,East,90,0.0,0.0,90,0.00,,,0.00,Wunderground v.1.13,2013-06-19 10:50:00,
2013-06-19 06:56:00,78.9,75.4,30.00,East,91,0.0,0.0,89,0.00,,,0.00,Wunderground v.1.13,2013-06-19 10:56:00,
2013-06-19 07:02:00,79.0,75.8,30.01,East,91,0.0,0.0,90,0.00,,,0.00,Wunderground v.1.13,2013-06-19 11:02:00,
2013-06-19 07:08:00,79.1,75.6,30.00,East,91,0.0,0.0,89,0.00,,,0.00,Wunderground v.1.13,2013-06-19 11:08:00,
2013-06-19 07:14:00,79.2,76.0,30.01,East,96,0.0,0.0,90,0.00,,,0.00,Wunderground v.1.13,2013-06-19 11:14:00,
2013-06-19 07:20:00,79.4,75.9,30.01,South,190,0.0,0.0,89,0.00,,,0.00,Wunderground v.1.13,2013-06-19 11:20:00,
2013-06-19 07:26:00,79.5,75.6,30.01,SSW,193,0.0,0.0,88,0.00,,,0.00,Wunderground v.1.13,2013-06-19 11:26:00,
2013-06-19 07:32:00,79.7,75.5,30.01,SSW,192,0.0,0.0,87,0.00,,,0.00,Wunderground v.1.13,2013-06-19 11:32:00,
2013-06-19 07:38:00,79.9,75.3,30.02,SSW,193,0.0,0.0,86,0.00,,,0.00,Wunderground v.1.13,2013-06-19 11:38:00,
2013-06-19 07:44:00,80.3,75.7,30.02,SSW,202,0.0,0.0,86,0.00,,,0.00,Wunderground v.1.13,2013-06-19 11:44:00,
2013-06-19 07:50:00,80.7,76.1,30.02,SSW,202,0.0,0.0,86,0.00,,,0.00,Wunderground v.1.13,2013-06-19 11:50:00,
2013-06-19 07:56:00,81.1,76.5,30.02,SSW,202,0.0,0.0,86,0.00,,,0.00,Wunderground v.1.13,2013-06-19 11:56:00,
2013-06-19 08:02:00,81.3,76.7,30.02,SSW,202,0.0,0.0,86,0.00,,,0.00,Wunderground v.1.13,2013-06-19 12:02:00,
2013-06-19 08:08:00,81.6,77.0,30.02,SSW,202,0.0,0.0,86,0.00,,,0.00,Wunderground v.1.13,2013-06-19 12:08:00,
2013-06-19 08:14:00,81.6,76.6,30.02,SSW,202,0.0,0.0,85,0.00,,,0.00,Wunderground v.1.13,2013-06-19 12:14:00,
2013-06-19 08:20:00,81.9,76.9,30.02,SSW,202,0.0,0.0,85,0.00,,,0.00,Wunderground v.1.13,2013-06-19 12:20:00,
2013-06-19 08:26:00,82.2,77.2,30.03,SSW,202,0.0,0.0,85,0.00,,,0.00,Wunderground v.1.13,2013-06-19 12:26:00,
2013-06-19 08:32:00,82.7,77.7,30.03,SSW,202,0.0,0.0,85,0.00,,,0.00,Wunderground v.1.13,2013-06-19 12:32:00,
2013-06-19 08:38:00,83.1,77.8,30.03,SSW,202,0.0,0.0,84,0.00,,,0.00,Wunderground v.1.13,2013-06-19 12:38:00,
2013-06-19 08:44:00,83.5,77.8,30.02,SSW,202,0.0,0.0,83,0.00,,,0.00,Wunderground v.1.13,2013-06-19 12:44:00,
2013-06-19 08:50:00,83.8,77.7,30.03,SSW,202,0.0,0.0,82,0.00,,,0.00,Wunderground v.1.13,2013-06-19 12:50:00,
2013-06-19 08:56:00,84.0,77.9,30.03,WSW,253,0.0,0.0,82,0.00,,,0.00,Wunderground v.1.13,2013-06-19 12:56:00,
2013-06-19 09:02:00,84.4,78.3,30.03,West,260,0.0,0.0,82,0.00,,,0.00,Wunderground v.1.13,2013-06-19 13:02:00,
2013-06-19 09:08:00,84.7,78.2,30.03,West,275,0.0,0.0,81,0.00,,,0.00,Wunderground v.1.13,2013-06-19 13:08:00,
2013-06-19 09:14:00,85.0,78.1,30.03,West,272,0.0,0.0,80,0.00,,,0.00,Wunderground v.1.13,2013-06-19 13:14:00,
2013-06-19 09:20:00,85.2,78.3,30.03,West,272,0.0,0.0,80,0.00,,,0.00,Wunderground v.1.13,2013-06-19 13:20:00,
2013-06-19 09:26:00,85.0,77.4,30.03,West,259,0.0,1.0,78,0.00,,,0.00,Wunderground v.1.13,2013-06-19 13:26:00,
2013-06-19 09:32:00,85.1,77.8,30.03,WSW,257,0.0,0.0,79,0.00,,,0.00,Wunderground v.1.13,2013-06-19 13:32:00,
2013-06-19 09:38:00,85.3,77.7,30.03,SW,223,0.0,0.0,78,0.00,,,0.00,Wunderground v.1.13,2013-06-19 13:38:00,
2013-06-19 09:44:00,85.7,78.4,30.02,West,259,0.0,0.0,79,0.00,,,0.00,Wunderground v.1.13,2013-06-19 13:44:00,
2013-06-19 09:50:00,86.0,77.1,30.02,WSW,241,0.0,0.0,75,0.00,,,0.00,Wunderground v.1.13,2013-06-19 13:50:00,
2013-06-19 09:56:00,86.5,77.2,30.02,SW,229,0.0,0.0,74,0.00,,,0.00,Wunderground v.1.13,2013-06-19 13:56:00,
2013-06-19 10:02:00,87.0,77.7,30.02,WSW,245,0.0,0.0,74,0.00,,,0.00,Wunderground v.1.13,2013-06-19 14:02:00,
2013-06-19 10:08:00,87.1,77.8,30.02,SSW,205,0.0,1.0,74,0.00,,,0.00,Wunderground v.1.13,2013-06-19 14:08:00,
2013-06-19 10:14:00,86.7,77.0,30.02,SW,215,1.0,1.0,73,0.00,,,0.00,Wunderground v.1.13,2013-06-19 14:14:00,
2013-06-19 10:20:00,87.5,77.8,30.02,WSW,250,0.0,1.0,73,0.00,,,0.00,Wunderground v.1.13,2013-06-19 14:20:00,
2013-06-19 10:26:00,87.2,77.5,30.02,WSW,255,0.0,2.0,73,0.00,,,0.00,Wunderground v.1.13,2013-06-19 14:26:00,
2013-06-19 10:32:00,86.9,77.6,30.02,SW,236,0.0,1.0,74,0.00,,,0.00,Wunderground v.1.13,2013-06-19 14:32:00,
2013-06-19 10:38:00,87.1,77.0,30.02,SSW,212,0.0,1.0,72,0.00,,,0.00,Wunderground v.1.13,2013-06-19 14:38:00,
2013-06-19 10:44:00,87.8,76.8,30.02,SW,221,1.0,1.0,70,0.00,,,0.00,Wunderground v.1.13,2013-06-19 14:44:00,
2013-06-19 10:50:00,87.9,77.7,30.03,WSW,246,0.0,1.0,72,0.00,,,0.00,Wunderground v.1.13,2013-06-19 14:50:00,
2013-06-19 10:56:00,88.4,77.4,30.02,West,272,0.0,1.0,70,0.00,,,0.00,Wunderground v.1.13,2013-06-19 14:56:00,
2013-06-19 11:02:00,87.9,76.5,30.03,West,263,0.0,1.0,69,0.00,,,0.00,Wunderground v.1.13,2013-06-19 15:02:00,
2013-06-19 11:08:00,88.0,77.4,30.02,West,263,0.0,5.0,71,0.00,,,0.00,Wunderground v.1.13,2013-06-19 15:08:00,
2013-06-19 11:14:00,88.1,77.1,30.02,West,277,1.0,5.0,70,0.00,,,0.00,Wunderground v.1.13,2013-06-19 15:14:00,
2013-06-19 11:20:00,87.9,77.3,30.02,NW,313,1.0,5.0,71,0.00,,,0.00,Wunderground v.1.13,2013-06-19 15:20:00,
2013-06-19 11:26:00,87.9,77.7,30.03,West,273,1.0,11.0,72,0.00,,,0.00,Wunderground v.1.13,2013-06-19 15:26:00,
2013-06-19 11:32:00,87.7,78.0,30.03,WNW,294,1.0,2.0,73,0.00,,,0.00,Wunderground v.1.13,2013-06-19 15:32:00,
2013-06-19 11:38:00,87.6,77.5,30.03,NW,319,1.0,11.0,72,0.00,,,0.00,Wunderground v.1.13,2013-06-19 15:38:00,
2013-06-19 11:44:00,87.5,77.4,30.02,WNW,303,0.0,11.0,72,0.00,,,0.00,Wunderground v.1.13,2013-06-19 15:44:00,
2013-06-19 11:50:00,87.4,77.7,30.02,WSW,249,0.0,11.0,73,0.00,,,0.00,Wunderground v.1.13,2013-06-19 15:50:00,
2013-06-19 11:56:00,86.8,77.1,30.03,West,270,1.0,11.0,73,0.00,,,0.00,Wunderground v.1.13,2013-06-19 15:56:00,
2013-06-19 12:02:00,86.8,77.5,30.03,West,265,0.0,11.0,74,0.00,,,0.00,Wunderground v.1.13,2013-06-19 16:02:00,
2013-06-19 12:08:00,86.8,77.5,30.03,WSW,256,0.0,6.0,74,0.00,,,0.00,Wunderground v.1.13,2013-06-19 16:08:00,
2013-06-19 12:14:00,86.6,77.3,30.03,West,271,1.0,1.0,74,0.00,,,0.00,Wunderground v.1.13,2013-06-19 16:14:00,
2013-06-19 12:20:00,86.7,77.8,30.03,West,277,0.0,6.0,75,0.00,,,0.00,Wunderground v.1.13,2013-06-19 16:20:00,
2013-06-19 12:26:00,86.8,77.5,30.03,WNW,302,0.0,6.0,74,0.00,,,0.00,Wunderground v.1.13,2013-06-19 16:26:00,
2013-06-19 12:32:00,86.7,77.4,30.02,WSW,258,1.0,6.0,74,0.00,,,0.00,Wunderground v.1.13,2013-06-19 16:32:00,
2013-06-19 12:38:00,86.5,77.6,30.02,West,273,0.0,6.0,75,0.00,,,0.00,Wunderground v.1.13,2013-06-19 16:38:00,
2013-06-19 12:44:00,86.3,77.0,30.02,WNW,289,0.0,6.0,74,0.00,,,0.00,Wunderground v.1.13,2013-06-19 16:44:00,
2013-06-19 12:50:00,86.8,77.1,30.02,West,272,1.0,6.0,73,0.00,,,0.00,Wunderground v.1.13,2013-06-19 16:50:00,
2013-06-19 12:56:00,87.4,77.3,30.02,West,265,1.0,6.0,72,0.00,,,0.00,Wunderground v.1.13,2013-06-19 16:56:00,
2013-06-19 13:02:00,88.1,77.5,30.02,West,272,2.0,6.0,71,0.00,,,0.00,Wunderground v.1.13,2013-06-19 17:02:00,
2013-06-19 13:08:00,88.4,77.4,30.03,WNW,294,4.0,6.0,70,0.00,,,0.00,Wunderground v.1.13,2013-06-19 17:08:00,
2013-06-19 13:14:00,88.8,78.6,30.02,West,279,3.0,4.0,72,0.00,,,0.00,Wunderground v.1.13,2013-06-19 17:14:00,
2013-06-19 13:20:00,88.8,77.7,30.03,WNW,299,2.0,8.0,70,0.00,,,0.00,Wunderground v.1.13,2013-06-19 17:20:00,
2013-06-19 13:26:00,88.6,77.6,30.02,WNW,290,3.0,10.0,70,0.00,,,0.00,Wunderground v.1.13,2013-06-19 17:26:00,
2013-06-19 13:32:00,88.9,76.5,30.02,NW,314,3.0,10.0,67,0.00,,,0.00,Wunderground v.1.13,2013-06-19 17:32:00,
2013-06-19 13:38:00,89.3,76.9,30.02,WSW,254,3.0,10.0,67,0.00,,,0.00,Wunderground v.1.13,2013-06-19 17:38:00,
2013-06-19 13:44:00,89.5,77.5,30.02,WSW,257,1.0,10.0,68,0.00,,,0.00,Wunderground v.1.13,2013-06-19 17:44:00,
2013-06-19 13:50:00,90.0,77.6,30.02,West,265,1.0,10.0,67,0.00,,,0.00,Wunderground v.1.13,2013-06-19 17:50:00,
2013-06-19 13:56:00,89.9,77.0,30.02,West,259,1.0,10.0,66,0.00,,,0.00,Wunderground v.1.13,2013-06-19 17:56:00,
2013-06-19 14:02:00,90.2,76.8,30.02,West,273,0.0,10.0,65,0.00,,,0.00,Wunderground v.1.13,2013-06-19 18:02:00,
2013-06-19 14:08:00,90.6,76.7,30.02,WNW,299,0.0,0.0,64,0.00,,,0.00,Wunderground v.1.13,2013-06-19 18:08:00,
2013-06-19 14:14:00,90.9,77.0,30.01,West,269,0.0,6.0,64,0.00,,,0.00,Wunderground v.1.13,2013-06-19 18:14:00,
2013-06-19 14:20:00,90.2,76.4,30.01,West,281,1.0,10.0,64,0.00,,,0.00,Wunderground v.1.13,2013-06-19 18:20:00,
2013-06-19 14:26:00,90.0,76.2,30.00,NW,311,1.0,10.0,64,0.00,,,0.00,Wunderground v.1.13,2013-06-19 18:26:00,
2013-06-19 14:32:00,90.6,76.3,30.00,West,271,1.0,10.0,63,0.00,,,0.00,Wunderground v.1.13,2013-06-19 18:32:00,
2013-06-19 14:38:00,90.8,75.5,30.00,NW,324,1.0,10.0,61,0.00,,,0.00,Wunderground v.1.13,2013-06-19 18:38:00,
2013-06-19 14:44:00,91.2,75.9,30.00,WSW,256,2.0,10.0,61,0.00,,,0.00,Wunderground v.1.13,2013-06-19 18:44:00,
2013-06-19 14:50:00,91.1,76.7,30.00,NW,304,2.0,10.0,63,0.00,,,0.00,Wunderground v.1.13,2013-06-19 18:50:00,
2013-06-19 14:56:00,91.7,77.8,30.00,West,277,1.0,10.0,64,0.00,,,0.00,Wunderground v.1.13,2013-06-19 18:56:00,
2013-06-19 15:02:00,91.5,77.1,29.99,WNW,290,1.0,10.0,63,0.00,,,0.00,Wunderground v.1.13,2013-06-19 19:02:00,
2013-06-19 15:08:00,91.3,77.4,29.99,NW,304,1.0,1.0,64,0.00,,,0.00,Wunderground v.1.13,2013-06-19 19:08:00,
2013-06-19 15:14:00,91.5,78.1,29.99,West,280,1.0,6.0,65,0.00,,,0.00,Wunderground v.1.13,2013-06-19 19:14:00,
2013-06-19 15:20:00,91.5,77.1,29.98,WNW,282,2.0,2.0,63,0.00,,,0.00,Wunderground v.1.13,2013-06-19 19:20:00,
2013-06-19 15:26:00,91.1,77.2,29.99,NW,326,1.0,10.0,64,0.00,,,0.00,Wunderground v.1.13,2013-06-19 19:26:00,
2013-06-19 15:32:00,90.8,76.5,29.98,WSW,248,1.0,4.0,63,0.00,,,0.00,Wunderground v.1.13,2013-06-19 19:32:00,
2013-06-19 15:38:00,90.6,77.2,29.98,West,280,2.0,10.0,65,0.00,,,0.00,Wunderground v.1.13,2013-06-19 19:38:00,
2013-06-19 15:44:00,90.4,77.0,29.98,West,267,3.0,5.0,65,0.00,,,0.00,Wunderground v.1.13,2013-06-19 19:44:00,
2013-06-19 15:50:00,90.3,77.4,29.99,NW,317,2.0,10.0,66,0.00,,,0.00,Wunderground v.1.13,2013-06-19 19:50:00,
2013-06-19 15:56:00,90.5,77.1,29.99,NW,309,0.0,10.0,65,0.00,,,0.00,Wunderground v.1.13,2013-06-19 19:56:00,
2013-06-19 16:02:00,90.5,77.1,29.99,NW,306,1.0,10.0,65,0.00,,,0.00,Wunderground v.1.13,2013-06-19 20:02:00,
2013-06-19 16:08:00,90.7,77.8,29.99,WNW,303,1.0,1.0,66,0.00,,,0.00,Wunderground v.1.13,2013-06-19 20:08:00,
2013-06-19 16:14:00,90.3,77.8,29.99,West,276,1.0,3.0,67,0.00,,,0.00,Wunderground v.1.13,2013-06-19 20:14:00,
2013-06-19 16:20:00,89.7,77.3,29.98,NW,315,3.0,12.0,67,0.00,,,0.00,Wunderground v.1.13,2013-06-19 20:20:00,
2013-06-19 16:26:00,89.9,76.6,29.99,West,269,2.0,12.0,65,0.00,,,0.00,Wunderground v.1.13,2013-06-19 20:26:00,
2013-06-19 16:32:00,90.2,76.8,29.98,NW,323,1.0,12.0,65,0.00,,,0.00,Wunderground v.1.13,2013-06-19 20:32:00,
2013-06-19 16:40:00,90.3,77.4,29.98,WNW,303,0.0,12.0,66,0.00,,,0.00,Wunderground v.1.13,2013-06-19 20:40:00,
2013-06-19 16:46:00,89.9,76.6,29.98,NNW,331,1.0,12.0,65,0.00,,,0.00,Wunderground v.1.13,2013-06-19 20:46:00,
2013-06-19 16:52:00,89.5,75.7,29.97,West,276,2.0,12.0,64,0.00,,,0.00,Wunderground v.1.13,2013-06-19 20:52:00,
2013-06-19 16:58:00,89.5,76.6,29.97,NW,323,1.0,12.0,66,0.00,,,0.00,Wunderground v.1.13,2013-06-19 20:58:00,
2013-06-19 17:04:00,89.4,75.6,29.97,WSW,250,0.0,12.0,64,0.00,,,0.00,Wunderground v.1.13,2013-06-19 21:04:00,
2013-06-19 17:10:00,89.6,76.3,29.98,WNW,295,0.0,0.0,65,0.00,,,0.00,Wunderground v.1.13,2013-06-19 21:10:00,
2013-06-19 17:16:00,89.6,76.3,29.98,NNW,328,0.0,11.0,65,0.00,,,0.00,Wunderground v.1.13,2013-06-19 21:16:00,
2013-06-19 17:22:00,89.8,76.9,29.98,NNW,329,0.0,11.0,66,0.00,,,0.00,Wunderground v.1.13,2013-06-19 21:22:00,
2013-06-19 17:28:00,90.2,75.9,29.98,NW,306,0.0,11.0,63,0.00,,,0.00,Wunderground v.1.13,2013-06-19 21:28:00,
2013-06-19 17:34:00,90.2,76.4,29.98,West,279,0.0,11.0,64,0.00,,,0.00,Wunderground v.1.13,2013-06-19 21:34:00,
2013-06-19 17:40:00,90.1,76.7,29.98,NW,314,1.0,11.0,65,0.00,,,0.00,Wunderground v.1.13,2013-06-19 21:40:00,
2013-06-19 17:46:00,89.8,77.4,29.98,West,263,1.0,11.0,67,0.00,,,0.00,Wunderground v.1.13,2013-06-19 21:46:00,
2013-06-19 17:52:00,89.3,76.9,29.98,NW,310,1.0,11.0,67,0.00,,,0.00,Wunderground v.1.13,2013-06-19 21:52:00,
2013-06-19 17:58:00,89.5,76.6,29.98,NW,313,0.0,11.0,66,0.00,,,0.00,Wunderground v.1.13,2013-06-19 21:58:00,
2013-06-19 18:04:00,89.5,76.6,29.98,WNW,284,0.0,11.0,66,0.00,,,0.00,Wunderground v.1.13,2013-06-19 22:04:00,
2013-06-19 18:10:00,89.7,76.4,29.98,WNW,288,0.0,0.0,65,0.00,,,0.00,Wunderground v.1.13,2013-06-19 22:10:00,
2013-06-19 18:16:00,90.1,76.7,29.98,NNW,331,0.0,10.0,65,0.00,,,0.00,Wunderground v.1.13,2013-06-19 22:16:00,
2013-06-19 18:22:00,89.9,77.0,29.98,NW,319,0.0,10.0,66,0.00,,,0.00,Wunderground v.1.13,2013-06-19 22:22:00,
2013-06-19 18:28:00,89.3,76.4,29.98,NW,309,0.0,10.0,66,0.00,,,0.00,Wunderground v.1.13,2013-06-19 22:28:00,
2013-06-19 18:34:00,89.3,76.4,29.98,NW,309,0.0,10.0,66,0.00,,,0.00,Wunderground v.1.13,2013-06-19 22:34:00,
2013-06-19 18:40:00,89.4,77.0,29.98,NW,315,0.0,10.0,67,0.00,,,0.00,Wunderground v.1.13,2013-06-19 22:40:00,
2013-06-19 18:46:00,89.1,76.3,29.98,NW,311,0.0,10.0,66,0.00,,,0.00,Wunderground v.1.13,2013-06-19 22:46:00,
2013-06-19 18:52:00,88.6,76.2,29.98,NNW,340,0.0,10.0,67,0.00,,,0.00,Wunderground v.1.13,2013-06-19 22:52:00,
2013-06-19 18:58:00,88.5,76.1,29.98,NW,317,0.0,10.0,67,0.00,,,0.00,Wunderground v.1.13,2013-06-19 22:58:00,
2013-06-19 19:04:00,88.5,76.6,29.99,WNW,292,0.0,10.0,68,0.00,,,0.00,Wunderground v.1.13,2013-06-19 23:04:00,
2013-06-19 19:10:00,88.7,77.2,29.99,WNW,296,0.0,0.0,69,0.00,,,0.00,Wunderground v.1.13,2013-06-19 23:10:00,
2013-06-19 19:16:00,88.5,76.6,29.99,NW,307,0.0,0.0,68,0.00,,,0.00,Wunderground v.1.13,2013-06-19 23:16:00,
2013-06-19 19:22:00,88.1,76.6,29.99,NW,304,0.0,0.0,69,0.00,,,0.00,Wunderground v.1.13,2013-06-19 23:22:00,
2013-06-19 19:28:00,87.8,76.4,30.00,NW,304,0.0,0.0,69,0.00,,,0.00,Wunderground v.1.13,2013-06-19 23:28:00,
2013-06-19 19:34:00,87.4,76.0,30.00,NW,315,0.0,0.0,69,0.00,,,0.00,Wunderground v.1.13,2013-06-19 23:34:00,
2013-06-19 19:40:00,87.2,75.8,30.00,NW,325,0.0,0.0,69,0.00,,,0.00,Wunderground v.1.13,2013-06-19 23:40:00,
2013-06-19 19:46:00,87.0,76.0,30.00,NW,308,0.0,0.0,70,0.00,,,0.00,Wunderground v.1.13,2013-06-19 23:46:00,
2013-06-19 19:52:00,86.8,76.3,30.00,WNW,302,0.0,0.0,71,0.00,,,0.00,Wunderground v.1.13,2013-06-19 23:52:00,
2013-06-19 19:58:00,86.6,76.5,30.00,NW,307,0.0,0.0,72,0.00,,,0.00,Wunderground v.1.13,2013-06-19 23:58:00,
2013-06-19 20:04:00,86.3,76.6,30.00,NW,311,0.0,0.0,73,0.00,,,0.00,Wunderground v.1.13,2013-06-20 00:04:00,
2013-06-19 20:10:00,85.9,76.6,30.00,NW,311,0.0,0.0,74,0.00,,,0.00,Wunderground v.1.13,2013-06-20 00:10:00,
2013-06-19 20:16:00,85.7,76.5,30.00,NW,311,0.0,0.0,74,0.00,,,0.00,Wunderground v.1.13,2013-06-20 00:16:00,
2013-06-19 20:22:00,85.5,76.7,30.00,NW,311,0.0,0.0,75,0.00,,,0.00,Wunderground v.1.13,2013-06-20 00:22:00,
2013-06-19 20:28:00,85.2,76.8,30.00,NW,311,0.0,0.0,76,0.00,,,0.00,Wunderground v.1.13,2013-06-20 00:28:00,
2013-06-19 20:34:00,85.0,76.6,30.00,NW,311,0.0,0.0,76,0.00,,,0.00,Wunderground v.1.13,2013-06-20 00:34:00,
2013-06-19 20:40:00,84.9,76.5,30.00,NW,311,0.0,0.0,76,0.00,,,0.00,Wunderground v.1.13,2013-06-20 00:40:00,
2013-06-19 20:46:00,84.8,76.8,30.00,NW,311,0.0,0.0,77,0.00,,,0.00,Wunderground v.1.13,2013-06-20 00:46:00,
2013-06-19 20:52:00,84.8,76.8,30.00,NW,311,0.0,0.0,77,0.00,,,0.00,Wunderground v.1.13,2013-06-20 00:52:00,
2013-06-19 20:58:00,84.7,77.1,30.00,NW,311,0.0,0.0,78,0.00,,,0.00,Wunderground v.1.13,2013-06-20 00:58:00,
2013-06-19 21:04:00,84.6,77.0,30.00,NW,311,0.0,0.0,78,0.00,,,0.00,Wunderground v.1.13,2013-06-20 01:04:00,
2013-06-19 21:10:00,84.4,77.2,30.01,NW,311,0.0,0.0,79,0.00,,,0.00,Wunderground v.1.13,2013-06-20 01:10:00,
2013-06-19 21:16:00,84.3,77.1,30.01,NW,311,0.0,0.0,79,0.00,,,0.00,Wunderground v.1.13,2013-06-20 01:16:00,
2013-06-19 21:22:00,84.1,76.9,30.01,NW,311,0.0,0.0,79,0.00,,,0.00,Wunderground v.1.13,2013-06-20 01:22:00,
2013-06-19 21:28:00,84.0,76.8,30.02,NW,311,0.0,0.0,79,0.00,,,0.00,Wunderground v.1.13,2013-06-20 01:28:00,
2013-06-19 21:34:00,83.8,76.6,30.02,NW,311,0.0,0.0,79,0.00,,,0.00,Wunderground v.1.13,2013-06-20 01:34:00,
2013-06-19 21:40:00,83.8,77.0,30.02,NW,311,0.0,0.0,80,0.00,,,0.00,Wunderground v.1.13,2013-06-20 01:40:00,
2013-06-19 21:46:00,83.7,76.9,30.02,NW,311,0.0,0.0,80,0.00,,,0.00,Wunderground v.1.13,2013-06-20 01:46:00,
2013-06-19 21:52:00,83.6,76.8,30.03,NW,311,0.0,0.0,80,0.00,,,0.00,Wunderground v.1.13,2013-06-20 01:52:00,
2013-06-19 21:58:00,83.5,76.7,30.03,NW,311,0.0,0.0,80,0.00,,,0.00,Wunderground v.1.13,2013-06-20 01:58:00,
2013-06-19 22:04:00,83.4,76.6,30.03,NW,311,0.0,0.0,80,0.00,,,0.00,Wunderground v.1.13,2013-06-20 02:04:00,
2013-06-19 22:10:00,83.3,76.9,30.03,NW,311,0.0,0.0,81,0.00,,,0.00,Wunderground v.1.13,2013-06-20 02:10:00,
2013-06-19 22:16:00,83.2,76.8,30.03,NW,311,0.0,0.0,81,0.00,,,0.00,Wunderground v.1.13,2013-06-20 02:16:00,
2013-06-19 22:22:00,83.0,76.6,30.03,NW,311,0.0,0.0,81,0.00,,,0.00,Wunderground v.1.13,2013-06-20 02:22:00,
2013-06-19 22:28:00,82.9,76.8,30.03,NW,311,0.0,0.0,82,0.00,,,0.00,Wunderground v.1.13,2013-06-20 02:28:00,
2013-06-19 22:34:00,82.8,76.7,30.03,NW,311,0.0,0.0,82,0.00,,,0.00,Wunderground v.1.13,2013-06-20 02:34:00,
2013-06-19 22:40:00,82.7,76.6,30.03,NW,311,0.0,0.0,82,0.00,,,0.00,Wunderground v.1.13,2013-06-20 02:40:00,
2013-06-19 22:46:00,82.6,76.5,30.03,NW,311,0.0,0.0,82,0.00,,,0.00,Wunderground v.1.13,2013-06-20 02:46:00,
2013-06-19 22:52:00,82.5,76.4,30.03,NW,311,0.0,0.0,82,0.00,,,0.00,Wunderground v.1.13,2013-06-20 02:52:00,
2013-06-19 22:58:00,82.5,76.4,30.03,NW,311,0.0,0.0,82,0.00,,,0.00,Wunderground v.1.13,2013-06-20 02:58:00,
2013-06-19 23:04:00,82.3,76.3,30.03,NW,311,0.0,0.0,82,0.00,,,0.00,Wunderground v.1.13,2013-06-20 03:04:00,
2013-06-19 23:10:00,82.3,76.6,30.03,NW,311,0.0,0.0,83,0.00,,,0.00,Wunderground v.1.13,2013-06-20 03:10:00,
2013-06-19 23:16:00,82.1,76.4,30.03,NW,311,0.0,0.0,83,0.00,,,0.00,Wunderground v.1.13,2013-06-20 03:16:00,
2013-06-19 23:22:00,82.1,76.4,30.04,NW,311,0.0,0.0,83,0.00,,,0.00,Wunderground v.1.13,2013-06-20 03:22:00,
2013-06-19 23:28:00,82.0,76.7,30.03,NW,311,0.0,0.0,84,0.00,,,0.00,Wunderground v.1.13,2013-06-20 03:28:00,
2013-06-19 23:34:00,81.9,76.6,30.04,NW,311,0.0,0.0,84,0.00,,,0.00,Wunderground v.1.13,2013-06-20 03:34:00,
2013-06-19 23:40:00,81.8,76.5,30.04,NW,311,0.0,0.0,84,0.00,,,0.00,Wunderground v.1.13,2013-06-20 03:40:00,
2013-06-19 23:46:00,81.7,76.4,30.04,NW,311,0.0,0.0,84,0.00,,,0.00,Wunderground v.1.13,2013-06-20 03:46:00,
2013-06-19 23:52:00,81.6,76.3,30.04,NW,311,0.0,0.0,84,0.00,,,0.00,Wunderground v.1.13,2013-06-20 03:52:00,
2013-06-19 23:58:00,81.6,76.3,30.04,NW,311,0.0,0.0,84,0.00,,,0.00,Wunderground v.1.13,2013-06-20 03:58:00,